sensor_id;sensor_type;location;lat;lon;timestamp;temperature;humidity
39899;DHT22;25571;47.876;10.642;2022-11-25T00:01:58;1.30;99.90
39899;DHT22;25571;47.876;10.642;2022-11-25T00:04:23;1.40;99.90
39899;DHT22;25571;47.876;10.642;2022-11-25T00:06:49;1.60;99.90
39899;DHT22;25571;47.876;10.642;2022-11-25T00:09:15;1.60;99.90
39899;DHT22;25571;47.876;10.642;2022-11-25T00:11:40;1.70;99.90
39899;DHT22;25571;47.876;10.642;2022-11-25T00:14:07;1.70;99.90
39899;DHT22;25571;47.876;10.642;2022-11-25T00:16:34;1.70;99.90
39899;DHT22;25571;47.876;10.642;2022-11-25T00:18:59;1.60;99.90
39899;DHT22;25571;47.876;10.642;2022-11-25T00:21:26;1.60;99.90
39899;DHT22;25571;47.876;10.642;2022-11-25T00:23:53;1.60;99.90
39899;DHT22;25571;47.876;10.642;2022-11-25T00:26:19;1.80;99.90
39899;DHT22;25571;47.876;10.642;2022-11-25T00:28:45;1.70;99.90
39899;DHT22;25571;47.876;10.642;2022-11-25T00:31:12;1.70;99.90
39899;DHT22;25571;47.876;10.642;2022-11-25T00:33:38;1.70;99.90
39899;DHT22;25571;47.876;10.642;2022-11-25T00:36:04;1.70;99.90
39899;DHT22;25571;47.876;10.642;2022-11-25T00:38:29;1.70;99.90
39899;DHT22;25571;47.876;10.642;2022-11-25T00:40:55;1.70;99.90
39899;DHT22;25571;47.876;10.642;2022-11-25T00:43:41;1.70;99.90
39899;DHT22;25571;47.876;10.642;2022-11-25T00:46:25;1.50;99.90
39899;DHT22;25571;47.876;10.642;2022-11-25T00:48:51;1.50;99.90
39899;DHT22;25571;47.876;10.642;2022-11-25T00:51:16;1.50;99.90
39899;DHT22;25571;47.876;10.642;2022-11-25T00:53:42;1.50;99.90
39899;DHT22;25571;47.876;10.642;2022-11-25T00:56:08;1.50;99.90
39899;DHT22;25571;47.876;10.642;2022-11-25T00:58:40;1.60;99.90
39899;DHT22;25571;47.876;10.642;2022-11-25T01:01:05;1.50;99.90
39899;DHT22;25571;47.876;10.642;2022-11-25T01:03:31;1.30;99.90
39899;DHT22;25571;47.876;10.642;2022-11-25T01:06:00;1.30;99.90
39899;DHT22;25571;47.876;10.642;2022-11-25T01:08:28;1.30;99.90
39899;DHT22;25571;47.876;10.642;2022-11-25T01:11:00;1.40;99.90
39899;DHT22;25571;47.876;10.642;2022-11-25T01:13:26;1.50;99.90
39899;DHT22;25571;47.876;10.642;2022-11-25T01:15:51;1.40;99.90
39899;DHT22;25571;47.876;10.642;2022-11-25T01:18:17;1.50;99.90
39899;DHT22;25571;47.876;10.642;2022-11-25T01:20:42;1.50;99.90
39899;DHT22;25571;47.876;10.642;2022-11-25T01:23:08;1.60;99.90
39899;DHT22;25571;47.876;10.642;2022-11-25T01:25:36;1.60;99.90
39899;DHT22;25571;47.876;10.642;2022-11-25T01:28:02;1.50;99.90
39899;DHT22;25571;47.876;10.642;2022-11-25T01:30:28;1.40;99.90
39899;DHT22;25571;47.876;10.642;2022-11-25T01:32:53;1.40;99.90
39899;DHT22;25571;47.876;10.642;2022-11-25T01:35:19;1.30;99.90
39899;DHT22;25571;47.876;10.642;2022-11-25T01:37:44;1.20;99.90
39899;DHT22;25571;47.876;10.642;2022-11-25T01:40:10;1.10;99.90
39899;DHT22;25571;47.876;10.642;2022-11-25T01:42:40;1.10;99.90
39899;DHT22;25571;47.876;10.642;2022-11-25T01:45:39;1.20;99.90
39899;DHT22;25571;47.876;10.642;2022-11-25T01:48:00;1.40;99.90
39899;DHT22;25571;47.876;10.642;2022-11-25T01:50:27;1.30;99.90
39899;DHT22;25571;47.876;10.642;2022-11-25T01:52:53;1.20;99.90
39899;DHT22;25571;47.876;10.642;2022-11-25T01:55:20;1.20;99.90
39899;DHT22;25571;47.876;10.642;2022-11-25T01:57:49;1.10;99.90
39899;DHT22;25571;47.876;10.642;2022-11-25T02:00:16;1.30;99.90
39899;DHT22;25571;47.876;10.642;2022-11-25T02:02:41;1.40;99.90
39899;DHT22;25571;47.876;10.642;2022-11-25T02:05:07;1.50;99.90
39899;DHT22;25571;47.876;10.642;2022-11-25T02:07:34;1.50;99.90
39899;DHT22;25571;47.876;10.642;2022-11-25T02:10:00;1.60;99.90
39899;DHT22;25571;47.876;10.642;2022-11-25T02:12:27;1.60;99.90
39899;DHT22;25571;47.876;10.642;2022-11-25T02:14:53;1.60;99.90
39899;DHT22;25571;47.876;10.642;2022-11-25T02:17:19;1.60;99.90
39899;DHT22;25571;47.876;10.642;2022-11-25T02:22:25;1.50;99.90
39899;DHT22;25571;47.876;10.642;2022-11-25T02:24:53;1.50;99.90
39899;DHT22;25571;47.876;10.642;2022-11-25T02:27:20;1.40;99.90
39899;DHT22;25571;47.876;10.642;2022-11-25T02:29:46;1.40;99.90
39899;DHT22;25571;47.876;10.642;2022-11-25T02:32:12;1.40;99.90
39899;DHT22;25571;47.876;10.642;2022-11-25T02:34:47;1.30;99.90
39899;DHT22;25571;47.876;10.642;2022-11-25T02:37:13;1.30;99.90
39899;DHT22;25571;47.876;10.642;2022-11-25T02:39:38;1.20;99.90
39899;DHT22;25571;47.876;10.642;2022-11-25T02:42:04;1.10;99.90
39899;DHT22;25571;47.876;10.642;2022-11-25T02:44:30;1.10;99.90
39899;DHT22;25571;47.876;10.642;2022-11-25T02:46:55;1.10;99.90
39899;DHT22;25571;47.876;10.642;2022-11-25T02:49:21;1.10;99.90
39899;DHT22;25571;47.876;10.642;2022-11-25T02:51:46;1.10;99.90
39899;DHT22;25571;47.876;10.642;2022-11-25T02:54:12;1.10;99.90
39899;DHT22;25571;47.876;10.642;2022-11-25T02:56:38;1.30;99.90
39899;DHT22;25571;47.876;10.642;2022-11-25T02:59:04;1.30;99.90
39899;DHT22;25571;47.876;10.642;2022-11-25T03:01:30;1.30;99.90
39899;DHT22;25571;47.876;10.642;2022-11-25T03:03:56;1.30;99.90
39899;DHT22;25571;47.876;10.642;2022-11-25T03:06:22;1.30;99.90
39899;DHT22;25571;47.876;10.642;2022-11-25T03:08:47;1.40;99.90
39899;DHT22;25571;47.876;10.642;2022-11-25T03:11:13;1.40;99.90
39899;DHT22;25571;47.876;10.642;2022-11-25T03:13:39;1.30;99.90
39899;DHT22;25571;47.876;10.642;2022-11-25T03:16:04;1.20;99.90
39899;DHT22;25571;47.876;10.642;2022-11-25T03:18:30;1.40;99.90
39899;DHT22;25571;47.876;10.642;2022-11-25T03:20:55;1.30;99.90
39899;DHT22;25571;47.876;10.642;2022-11-25T03:23:21;1.30;99.90
39899;DHT22;25571;47.876;10.642;2022-11-25T03:25:46;1.10;99.90
39899;DHT22;25571;47.876;10.642;2022-11-25T03:28:12;1.00;99.90
39899;DHT22;25571;47.876;10.642;2022-11-25T03:30:37;1.00;99.90
39899;DHT22;25571;47.876;10.642;2022-11-25T03:33:03;1.00;99.90
39899;DHT22;25571;47.876;10.642;2022-11-25T03:35:29;1.10;99.90
39899;DHT22;25571;47.876;10.642;2022-11-25T03:37:54;1.20;99.90
39899;DHT22;25571;47.876;10.642;2022-11-25T03:40:20;1.30;99.90
39899;DHT22;25571;47.876;10.642;2022-11-25T03:42:45;1.40;99.90
39899;DHT22;25571;47.876;10.642;2022-11-25T03:45:11;1.40;99.90
39899;DHT22;25571;47.876;10.642;2022-11-25T03:47:38;3.30;99.90
39899;DHT22;25571;47.876;10.642;2022-11-25T03:50:04;1.50;99.90
39899;DHT22;25571;47.876;10.642;2022-11-25T03:52:30;1.60;99.90
39899;DHT22;25571;47.876;10.642;2022-11-25T03:54:55;1.60;99.90
39899;DHT22;25571;47.876;10.642;2022-11-25T03:57:21;1.60;99.90
39899;DHT22;25571;47.876;10.642;2022-11-25T03:59:47;1.70;99.90
39899;DHT22;25571;47.876;10.642;2022-11-25T04:02:12;1.80;99.90
39899;DHT22;25571;47.876;10.642;2022-11-25T04:04:38;1.90;99.90
39899;DHT22;25571;47.876;10.642;2022-11-25T04:07:04;1.80;99.90
39899;DHT22;25571;47.876;10.642;2022-11-25T04:09:29;1.80;99.90
39899;DHT22;25571;47.876;10.642;2022-11-25T04:11:55;1.70;99.90
39899;DHT22;25571;47.876;10.642;2022-11-25T04:14:39;1.70;99.90
39899;DHT22;25571;47.876;10.642;2022-11-25T04:17:04;1.80;99.90
39899;DHT22;25571;47.876;10.642;2022-11-25T04:19:30;1.80;99.90
39899;DHT22;25571;47.876;10.642;2022-11-25T04:21:55;1.80;99.90
39899;DHT22;25571;47.876;10.642;2022-11-25T04:24:23;1.90;99.90
39899;DHT22;25571;47.876;10.642;2022-11-25T04:26:49;2.00;99.90
39899;DHT22;25571;47.876;10.642;2022-11-25T04:29:15;2.00;99.90
39899;DHT22;25571;47.876;10.642;2022-11-25T04:31:41;2.00;99.90
39899;DHT22;25571;47.876;10.642;2022-11-25T04:34:06;2.00;99.90
39899;DHT22;25571;47.876;10.642;2022-11-25T04:36:32;1.90;99.90
39899;DHT22;25571;47.876;10.642;2022-11-25T04:38:57;1.90;99.90
39899;DHT22;25571;47.876;10.642;2022-11-25T04:41:22;2.00;99.90
39899;DHT22;25571;47.876;10.642;2022-11-25T04:43:48;2.00;99.90
39899;DHT22;25571;47.876;10.642;2022-11-25T04:46:15;2.00;99.90
39899;DHT22;25571;47.876;10.642;2022-11-25T04:48:41;-1.30;99.90
39899;DHT22;25571;47.876;10.642;2022-11-25T04:51:07;1.80;99.90
39899;DHT22;25571;47.876;10.642;2022-11-25T04:53:32;1.70;99.90
39899;DHT22;25571;47.876;10.642;2022-11-25T04:55:58;1.60;99.90
39899;DHT22;25571;47.876;10.642;2022-11-25T04:58:23;1.60;99.90
39899;DHT22;25571;47.876;10.642;2022-11-25T05:01:07;1.60;99.90
39899;DHT22;25571;47.876;10.642;2022-11-25T05:03:32;1.50;99.90
39899;DHT22;25571;47.876;10.642;2022-11-25T05:05:58;1.50;99.90
39899;DHT22;25571;47.876;10.642;2022-11-25T05:08:23;2.90;99.90
39899;DHT22;25571;47.876;10.642;2022-11-25T05:10:49;1.50;99.90
39899;DHT22;25571;47.876;10.642;2022-11-25T05:13:14;1.50;99.90
39899;DHT22;25571;47.876;10.642;2022-11-25T05:15:40;1.70;99.90
39899;DHT22;25571;47.876;10.642;2022-11-25T05:18:05;1.60;99.90
39899;DHT22;25571;47.876;10.642;2022-11-25T05:20:31;1.60;99.90
39899;DHT22;25571;47.876;10.642;2022-11-25T05:22:56;1.60;99.90
39899;DHT22;25571;47.876;10.642;2022-11-25T05:25:22;1.60;99.90
39899;DHT22;25571;47.876;10.642;2022-11-25T05:27:49;1.60;99.90
39899;DHT22;25571;47.876;10.642;2022-11-25T05:30:14;1.60;99.90
39899;DHT22;25571;47.876;10.642;2022-11-25T05:32:40;1.70;99.90
39899;DHT22;25571;47.876;10.642;2022-11-25T05:35:05;1.70;99.90
39899;DHT22;25571;47.876;10.642;2022-11-25T05:37:31;1.70;99.90
39899;DHT22;25571;47.876;10.642;2022-11-25T05:39:56;1.80;99.90
39899;DHT22;25571;47.876;10.642;2022-11-25T05:42:22;1.80;99.90
39899;DHT22;25571;47.876;10.642;2022-11-25T05:44:47;1.80;99.90
39899;DHT22;25571;47.876;10.642;2022-11-25T05:47:13;1.90;99.90
39899;DHT22;25571;47.876;10.642;2022-11-25T05:49:38;2.00;99.90
39899;DHT22;25571;47.876;10.642;2022-11-25T05:52:04;2.00;99.90
39899;DHT22;25571;47.876;10.642;2022-11-25T05:54:29;2.10;99.90
39899;DHT22;25571;47.876;10.642;2022-11-25T05:56:55;2.20;99.90
39899;DHT22;25571;47.876;10.642;2022-11-25T05:59:20;2.10;99.90
39899;DHT22;25571;47.876;10.642;2022-11-25T06:01:46;2.00;99.90
39899;DHT22;25571;47.876;10.642;2022-11-25T06:04:11;1.90;99.90
39899;DHT22;25571;47.876;10.642;2022-11-25T06:06:37;2.70;99.90
39899;DHT22;25571;47.876;10.642;2022-11-25T06:09:02;1.90;99.90
39899;DHT22;25571;47.876;10.642;2022-11-25T06:11:28;2.00;99.90
39899;DHT22;25571;47.876;10.642;2022-11-25T06:13:54;2.10;99.90
39899;DHT22;25571;47.876;10.642;2022-11-25T06:16:20;2.20;99.90
39899;DHT22;25571;47.876;10.642;2022-11-25T06:18:46;2.20;99.90
39899;DHT22;25571;47.876;10.642;2022-11-25T06:21:12;2.20;99.90
39899;DHT22;25571;47.876;10.642;2022-11-25T06:23:38;2.20;99.90
39899;DHT22;25571;47.876;10.642;2022-11-25T06:28:29;2.20;99.90
39899;DHT22;25571;47.876;10.642;2022-11-25T06:30:54;2.20;99.90
39899;DHT22;25571;47.876;10.642;2022-11-25T06:33:20;2.30;99.90
39899;DHT22;25571;47.876;10.642;2022-11-25T06:35:45;2.30;99.90
39899;DHT22;25571;47.876;10.642;2022-11-25T06:38:11;2.20;99.90
39899;DHT22;25571;47.876;10.642;2022-11-25T06:40:36;2.10;99.90
39899;DHT22;25571;47.876;10.642;2022-11-25T06:43:02;2.00;99.90
39899;DHT22;25571;47.876;10.642;2022-11-25T06:45:28;1.90;99.90
39899;DHT22;25571;47.876;10.642;2022-11-25T06:47:54;2.00;99.90
39899;DHT22;25571;47.876;10.642;2022-11-25T06:50:19;2.00;99.90
39899;DHT22;25571;47.876;10.642;2022-11-25T06:52:44;2.00;99.90
39899;DHT22;25571;47.876;10.642;2022-11-25T06:55:10;1.90;99.90
39899;DHT22;25571;47.876;10.642;2022-11-25T06:57:35;1.80;99.90
39899;DHT22;25571;47.876;10.642;2022-11-25T07:00:01;1.60;99.90
39899;DHT22;25571;47.876;10.642;2022-11-25T07:02:27;1.60;99.90
39899;DHT22;25571;47.876;10.642;2022-11-25T07:04:52;1.60;99.90
39899;DHT22;25571;47.876;10.642;2022-11-25T07:07:18;1.60;99.90
39899;DHT22;25571;47.876;10.642;2022-11-25T07:09:43;1.50;99.90
39899;DHT22;25571;47.876;10.642;2022-11-25T07:12:09;1.50;99.90
39899;DHT22;25571;47.876;10.642;2022-11-25T07:14:36;1.50;99.90
39899;DHT22;25571;47.876;10.642;2022-11-25T07:17:02;1.50;99.90
39899;DHT22;25571;47.876;10.642;2022-11-25T07:19:27;1.50;99.90
39899;DHT22;25571;47.876;10.642;2022-11-25T07:21:57;1.50;99.90
39899;DHT22;25571;47.876;10.642;2022-11-25T07:24:23;1.50;99.90
39899;DHT22;25571;47.876;10.642;2022-11-25T07:26:48;1.50;99.90
39899;DHT22;25571;47.876;10.642;2022-11-25T07:29:14;1.50;99.90
39899;DHT22;25571;47.876;10.642;2022-11-25T07:31:43;1.60;99.90
39899;DHT22;25571;47.876;10.642;2022-11-25T07:34:13;1.70;99.90
39899;DHT22;25571;47.876;10.642;2022-11-25T07:36:39;1.90;99.90
39899;DHT22;25571;47.876;10.642;2022-11-25T07:39:05;2.40;99.90
39899;DHT22;25571;47.876;10.642;2022-11-25T07:41:31;3.60;99.90
39899;DHT22;25571;47.876;10.642;2022-11-25T07:43:58;4.40;99.90
39899;DHT22;25571;47.876;10.642;2022-11-25T07:46:25;5.00;99.90
39899;DHT22;25571;47.876;10.642;2022-11-25T07:48:51;5.90;99.90
39899;DHT22;25571;47.876;10.642;2022-11-25T07:53:44;6.40;99.90
39899;DHT22;25571;47.876;10.642;2022-11-25T07:56:09;7.30;99.90
39899;DHT22;25571;47.876;10.642;2022-11-25T07:58:35;5.70;99.90
39899;DHT22;25571;47.876;10.642;2022-11-25T08:01:01;5.60;99.90
39899;DHT22;25571;47.876;10.642;2022-11-25T08:03:26;5.50;99.90
39899;DHT22;25571;47.876;10.642;2022-11-25T08:05:52;5.30;99.90
39899;DHT22;25571;47.876;10.642;2022-11-25T08:08:17;6.10;99.90
39899;DHT22;25571;47.876;10.642;2022-11-25T08:10:43;5.10;99.90
39899;DHT22;25571;47.876;10.642;2022-11-25T08:13:08;5.00;99.90
39899;DHT22;25571;47.876;10.642;2022-11-25T08:15:34;5.00;99.90
39899;DHT22;25571;47.876;10.642;2022-11-25T08:17:59;5.50;99.90
39899;DHT22;25571;47.876;10.642;2022-11-25T08:20:25;4.50;99.90
39899;DHT22;25571;47.876;10.642;2022-11-25T08:22:50;4.40;99.90
39899;DHT22;25571;47.876;10.642;2022-11-25T08:25:16;4.20;99.90
39899;DHT22;25571;47.876;10.642;2022-11-25T08:27:41;4.10;99.90
39899;DHT22;25571;47.876;10.642;2022-11-25T08:30:07;4.10;99.90
39899;DHT22;25571;47.876;10.642;2022-11-25T08:32:36;4.00;99.90
39899;DHT22;25571;47.876;10.642;2022-11-25T08:35:01;3.90;99.90
39899;DHT22;25571;47.876;10.642;2022-11-25T08:37:29;4.00;99.90
39899;DHT22;25571;47.876;10.642;2022-11-25T08:39:54;4.10;99.90
39899;DHT22;25571;47.876;10.642;2022-11-25T08:42:21;4.20;99.90
39899;DHT22;25571;47.876;10.642;2022-11-25T08:44:50;4.60;99.90
39899;DHT22;25571;47.876;10.642;2022-11-25T08:47:16;4.20;99.90
39899;DHT22;25571;47.876;10.642;2022-11-25T08:49:42;4.60;99.90
39899;DHT22;25571;47.876;10.642;2022-11-25T08:52:08;5.50;99.90
39899;DHT22;25571;47.876;10.642;2022-11-25T09:11:35;10.90;90.80
39899;DHT22;25571;47.876;10.642;2022-11-25T09:14:00;11.20;88.90
39899;DHT22;25571;47.876;10.642;2022-11-25T09:26:28;12.60;77.90
39899;DHT22;25571;47.876;10.642;2022-11-25T09:33:46;12.80;76.20
39899;DHT22;25571;47.876;10.642;2022-11-25T09:36:13;13.70;76.80
39899;DHT22;25571;47.876;10.642;2022-11-25T09:38:38;12.80;75.80
39899;DHT22;25571;47.876;10.642;2022-11-25T09:41:06;13.10;75.30
39899;DHT22;25571;47.876;10.642;2022-11-25T09:43:49;13.20;73.90
39899;DHT22;25571;47.876;10.642;2022-11-25T09:51:37;12.50;77.30
39899;DHT22;25571;47.876;10.642;2022-11-25T09:54:12;12.10;83.10
39899;DHT22;25571;47.876;10.642;2022-11-25T10:06:26;10.40;84.30
39899;DHT22;25571;47.876;10.642;2022-11-25T10:08:56;10.00;86.10
39899;DHT22;25571;47.876;10.642;2022-11-25T10:14:07;9.40;90.30
39899;DHT22;25571;47.876;10.642;2022-11-25T10:16:41;10.00;91.20
39899;DHT22;25571;47.876;10.642;2022-11-25T10:21:53;9.50;92.00
39899;DHT22;25571;47.876;10.642;2022-11-25T10:24:19;9.80;92.10
39899;DHT22;25571;47.876;10.642;2022-11-25T10:26:48;9.90;92.30
39899;DHT22;25571;47.876;10.642;2022-11-25T10:29:21;10.10;91.80
39899;DHT22;25571;47.876;10.642;2022-11-25T10:31:46;10.10;92.70
39899;DHT22;25571;47.876;10.642;2022-11-25T10:34:23;10.10;93.10
39899;DHT22;25571;47.876;10.642;2022-11-25T10:36:51;10.20;93.50
39899;DHT22;25571;47.876;10.642;2022-11-25T10:39:19;10.60;93.40
39899;DHT22;25571;47.876;10.642;2022-11-25T10:41:53;10.40;93.20
39899;DHT22;25571;47.876;10.642;2022-11-25T10:44:24;10.40;93.30
39899;DHT22;25571;47.876;10.642;2022-11-25T10:46:54;10.40;93.00
39899;DHT22;25571;47.876;10.642;2022-11-25T10:49:35;10.40;93.50
39899;DHT22;25571;47.876;10.642;2022-11-25T10:52:06;10.40;93.40
39899;DHT22;25571;47.876;10.642;2022-11-25T10:54:34;10.50;93.60
39899;DHT22;25571;47.876;10.642;2022-11-25T10:57:00;10.50;93.50
39899;DHT22;25571;47.876;10.642;2022-11-25T10:59:31;10.50;93.40
39899;DHT22;25571;47.876;10.642;2022-11-25T11:04:32;10.60;93.40
39899;DHT22;25571;47.876;10.642;2022-11-25T11:06:57;10.50;93.50
39899;DHT22;25571;47.876;10.642;2022-11-25T11:09:35;10.60;93.70
39899;DHT22;25571;47.876;10.642;2022-11-25T11:12:12;10.50;93.50
39899;DHT22;25571;47.876;10.642;2022-11-25T11:14:38;10.50;93.70
39899;DHT22;25571;47.876;10.642;2022-11-25T11:17:04;13.70;94.20
39899;DHT22;25571;47.876;10.642;2022-11-25T11:19:29;10.50;93.80
39899;DHT22;25571;47.876;10.642;2022-11-25T11:22:13;10.60;93.10
39899;DHT22;25571;47.876;10.642;2022-11-25T11:24:38;10.60;93.50
39899;DHT22;25571;47.876;10.642;2022-11-25T11:27:18;10.60;93.70
39899;DHT22;25571;47.876;10.642;2022-11-25T11:29:44;10.70;94.10
39899;DHT22;25571;47.876;10.642;2022-11-25T11:32:21;10.70;94.20
39899;DHT22;25571;47.876;10.642;2022-11-25T11:34:49;10.60;94.10
39899;DHT22;25571;47.876;10.642;2022-11-25T11:37:25;10.70;94.10
39899;DHT22;25571;47.876;10.642;2022-11-25T11:47:27;10.80;94.00
39899;DHT22;25571;47.876;10.642;2022-11-25T11:54:52;11.10;94.30
39899;DHT22;25571;47.876;10.642;2022-11-25T11:57:22;11.00;94.20
39899;DHT22;25571;47.876;10.642;2022-11-25T12:05:00;11.10;94.50
39899;DHT22;25571;47.876;10.642;2022-11-25T12:07:33;11.10;94.60
39899;DHT22;25571;47.876;10.642;2022-11-25T12:10:05;11.10;94.30
39899;DHT22;25571;47.876;10.642;2022-11-25T12:12:34;11.00;94.60
39899;DHT22;25571;47.876;10.642;2022-11-25T12:15:03;11.10;94.70
39899;DHT22;25571;47.876;10.642;2022-11-25T12:17:31;11.10;95.50
39899;DHT22;25571;47.876;10.642;2022-11-25T12:20:08;11.10;95.40
39899;DHT22;25571;47.876;10.642;2022-11-25T12:22:43;11.10;95.10
39899;DHT22;25571;47.876;10.642;2022-11-25T12:25:18;8.60;93.80
39899;DHT22;25571;47.876;10.642;2022-11-25T12:35:19;11.10;95.10
39899;DHT22;25571;47.876;10.642;2022-11-25T12:37:49;11.10;95.00
39899;DHT22;25571;47.876;10.642;2022-11-25T12:40:33;11.10;95.30
39899;DHT22;25571;47.876;10.642;2022-11-25T12:43:44;11.10;95.20
39899;DHT22;25571;47.876;10.642;2022-11-25T12:45:50;11.00;95.40
39899;DHT22;25571;47.876;10.642;2022-11-25T12:48:16;10.90;95.50
39899;DHT22;25571;47.876;10.642;2022-11-25T12:53:22;11.00;95.70
39899;DHT22;25571;47.876;10.642;2022-11-25T12:55:50;11.00;95.80
39899;DHT22;25571;47.876;10.642;2022-11-25T13:05:54;11.00;96.40
39899;DHT22;25571;47.876;10.642;2022-11-25T13:13:25;10.90;96.40
39899;DHT22;25571;47.876;10.642;2022-11-25T13:15:54;10.80;96.50
39899;DHT22;25571;47.876;10.642;2022-11-25T13:18:22;10.80;96.30
39899;DHT22;25571;47.876;10.642;2022-11-25T13:20:50;10.80;96.60
39899;DHT22;25571;47.876;10.642;2022-11-25T13:25:43;12.80;97.40
39899;DHT22;25571;47.876;10.642;2022-11-25T13:30:54;10.60;97.50
39899;DHT22;25571;47.876;10.642;2022-11-25T13:35:49;10.60;97.60
39899;DHT22;25571;47.876;10.642;2022-11-25T13:43:24;10.50;97.70
39899;DHT22;25571;47.876;10.642;2022-11-25T13:45:50;10.50;97.80
39899;DHT22;25571;47.876;10.642;2022-11-25T13:50:41;10.30;97.80
39899;DHT22;25571;47.876;10.642;2022-11-25T13:53:16;10.40;98.40
39899;DHT22;25571;47.876;10.642;2022-11-25T13:55:42;10.30;98.60
39899;DHT22;25571;47.876;10.642;2022-11-25T14:24:06;10.00;98.10
39899;DHT22;25571;47.876;10.642;2022-11-25T14:26:35;10.00;97.90
39899;DHT22;25571;47.876;10.642;2022-11-25T14:29:12;9.90;97.60
39899;DHT22;25571;47.876;10.642;2022-11-25T14:31:40;9.90;97.10
39899;DHT22;25571;47.876;10.642;2022-11-25T14:34:10;10.40;97.70
39899;DHT22;25571;47.876;10.642;2022-11-25T14:36:39;9.90;98.00
39899;DHT22;25571;47.876;10.642;2022-11-25T14:39:08;12.50;98.50
39899;DHT22;25571;47.876;10.642;2022-11-25T14:42:21;9.70;98.60
39899;DHT22;25571;47.876;10.642;2022-11-25T14:44:22;10.60;99.80
39899;DHT22;25571;47.876;10.642;2022-11-25T14:46:53;9.60;99.90
39899;DHT22;25571;47.876;10.642;2022-11-25T14:49:19;9.50;99.90
39899;DHT22;25571;47.876;10.642;2022-11-25T14:51:46;9.40;99.90
39899;DHT22;25571;47.876;10.642;2022-11-25T14:54:12;9.40;99.90
39899;DHT22;25571;47.876;10.642;2022-11-25T14:56:39;9.80;99.90
39899;DHT22;25571;47.876;10.642;2022-11-25T14:59:06;9.40;99.90
39899;DHT22;25571;47.876;10.642;2022-11-25T15:01:33;11.40;99.90
39899;DHT22;25571;47.876;10.642;2022-11-25T15:04:03;9.40;99.90
39899;DHT22;25571;47.876;10.642;2022-11-25T15:06:33;9.50;99.90
39899;DHT22;25571;47.876;10.642;2022-11-25T15:08:59;9.30;99.90
39899;DHT22;25571;47.876;10.642;2022-11-25T15:11:25;9.30;99.90
39899;DHT22;25571;47.876;10.642;2022-11-25T15:13:54;9.40;99.90
39899;DHT22;25571;47.876;10.642;2022-11-25T15:16:22;9.30;99.90
39899;DHT22;25571;47.876;10.642;2022-11-25T15:21:16;9.10;99.90
39899;DHT22;25571;47.876;10.642;2022-11-25T15:23:42;11.80;99.90
39899;DHT22;25571;47.876;10.642;2022-11-25T15:26:18;9.10;99.90
39899;DHT22;25571;47.876;10.642;2022-11-25T15:28:44;9.00;99.90
39899;DHT22;25571;47.876;10.642;2022-11-25T15:31:14;8.90;99.90
39899;DHT22;25571;47.876;10.642;2022-11-25T15:33:40;8.80;99.90
39899;DHT22;25571;47.876;10.642;2022-11-25T15:36:06;9.30;99.90
39899;DHT22;25571;47.876;10.642;2022-11-25T15:38:42;8.70;99.90
39899;DHT22;25571;47.876;10.642;2022-11-25T15:43:52;8.70;99.90
39899;DHT22;25571;47.876;10.642;2022-11-25T15:46:19;8.50;99.90
39899;DHT22;25571;47.876;10.642;2022-11-25T15:48:46;11.10;99.90
39899;DHT22;25571;47.876;10.642;2022-11-25T15:53:43;8.50;99.90
39899;DHT22;25571;47.876;10.642;2022-11-25T15:56:11;8.60;99.90
39899;DHT22;25571;47.876;10.642;2022-11-25T15:58:41;8.40;99.90
39899;DHT22;25571;47.876;10.642;2022-11-25T16:01:18;8.40;99.90
39899;DHT22;25571;47.876;10.642;2022-11-25T16:03:45;8.30;99.90
39899;DHT22;25571;47.876;10.642;2022-11-25T16:08:50;8.20;99.90
39899;DHT22;25571;47.876;10.642;2022-11-25T16:11:16;8.60;99.90
39899;DHT22;25571;47.876;10.642;2022-11-25T16:13:44;8.10;99.90
39899;DHT22;25571;47.876;10.642;2022-11-25T16:16:14;8.20;99.90
39899;DHT22;25571;47.876;10.642;2022-11-25T16:18:49;8.10;99.90
39899;DHT22;25571;47.876;10.642;2022-11-25T16:21:21;8.20;99.90
39899;DHT22;25571;47.876;10.642;2022-11-25T16:23:48;8.10;99.90
39899;DHT22;25571;47.876;10.642;2022-11-25T16:26:16;8.10;99.90
39899;DHT22;25571;47.876;10.642;2022-11-25T16:28:49;8.20;99.90
39899;DHT22;25571;47.876;10.642;2022-11-25T16:31:15;8.10;99.90
39899;DHT22;25571;47.876;10.642;2022-11-25T16:33:41;8.10;99.90
39899;DHT22;25571;47.876;10.642;2022-11-25T16:36:07;9.10;99.90
39899;DHT22;25571;47.876;10.642;2022-11-25T16:38:33;10.90;99.90
39899;DHT22;25571;47.876;10.642;2022-11-25T16:40:58;8.20;99.90
39899;DHT22;25571;47.876;10.642;2022-11-25T16:43:25;8.20;99.90
39899;DHT22;25571;47.876;10.642;2022-11-25T16:45:51;8.20;99.90
39899;DHT22;25571;47.876;10.642;2022-11-25T16:48:18;10.40;99.90
39899;DHT22;25571;47.876;10.642;2022-11-25T16:50:44;8.20;99.90
39899;DHT22;25571;47.876;10.642;2022-11-25T16:53:10;8.50;99.90
39899;DHT22;25571;47.876;10.642;2022-11-25T16:55:36;8.50;99.90
39899;DHT22;25571;47.876;10.642;2022-11-25T16:58:04;8.10;99.90
39899;DHT22;25571;47.876;10.642;2022-11-25T17:00:33;8.20;99.90
39899;DHT22;25571;47.876;10.642;2022-11-25T17:02:58;8.70;99.90
39899;DHT22;25571;47.876;10.642;2022-11-25T17:05:24;8.00;99.90
39899;DHT22;25571;47.876;10.642;2022-11-25T17:07:49;8.10;99.90
39899;DHT22;25571;47.876;10.642;2022-11-25T17:10:15;8.00;99.90
39899;DHT22;25571;47.876;10.642;2022-11-25T17:12:41;8.00;99.90
39899;DHT22;25571;47.876;10.642;2022-11-25T17:15:12;8.00;99.90
39899;DHT22;25571;47.876;10.642;2022-11-25T17:17:39;8.00;99.90
39899;DHT22;25571;47.876;10.642;2022-11-25T17:20:05;8.10;99.90
39899;DHT22;25571;47.876;10.642;2022-11-25T17:22:34;8.10;99.90
39899;DHT22;25571;47.876;10.642;2022-11-25T17:24:59;8.00;99.90
39899;DHT22;25571;47.876;10.642;2022-11-25T17:27:26;8.00;99.90
39899;DHT22;25571;47.876;10.642;2022-11-25T17:29:53;7.80;99.90
39899;DHT22;25571;47.876;10.642;2022-11-25T17:32:19;8.40;99.90
39899;DHT22;25571;47.876;10.642;2022-11-25T17:34:45;8.40;99.90
39899;DHT22;25571;47.876;10.642;2022-11-25T17:37:12;8.40;99.90
39899;DHT22;25571;47.876;10.642;2022-11-25T17:39:37;7.90;99.90
39899;DHT22;25571;47.876;10.642;2022-11-25T17:42:03;8.00;99.90
39899;DHT22;25571;47.876;10.642;2022-11-25T17:44:29;7.90;99.90
39899;DHT22;25571;47.876;10.642;2022-11-25T17:46:55;8.00;99.90
39899;DHT22;25571;47.876;10.642;2022-11-25T17:49:20;8.00;99.90
39899;DHT22;25571;47.876;10.642;2022-11-25T17:51:46;7.80;99.90
39899;DHT22;25571;47.876;10.642;2022-11-25T17:54:12;7.90;99.90
39899;DHT22;25571;47.876;10.642;2022-11-25T17:56:38;7.80;99.90
39899;DHT22;25571;47.876;10.642;2022-11-25T17:59:05;7.80;99.90
39899;DHT22;25571;47.876;10.642;2022-11-25T18:01:34;9.10;99.90
39899;DHT22;25571;47.876;10.642;2022-11-25T18:04:05;7.70;99.90